sensor_id;sensor_type;location;lat;lon;timestamp;pressure;altitude;pressure_sealevel;temperature;humidity
64402;BME280;50724;42.376;23.768;2023-05-19T00:00:45;93338.72;;;8.98;100.00
64402;BME280;50724;42.376;23.768;2023-05-19T00:03:53;93342.69;;;8.84;100.00
64402;BME280;50724;42.376;23.768;2023-05-19T00:06:56;93333.91;;;8.85;100.00
64402;BME280;50724;42.376;23.768;2023-05-19T00:09:58;93331.59;;;9.00;100.00
64402;BME280;50724;42.376;23.768;2023-05-19T00:12:59;93328.28;;;8.98;100.00
64402;BME280;50724;42.376;23.768;2023-05-19T00:16:00;93324.31;;;8.86;100.00
64402;BME280;50724;42.376;23.768;2023-05-19T00:19:03;93331.38;;;8.76;100.00
64402;BME280;50724;42.376;23.768;2023-05-19T00:22:03;93331.75;;;8.81;100.00
64402;BME280;50724;42.376;23.768;2023-05-19T00:25:05;93332.47;;;8.91;100.00
64402;BME280;50724;42.376;23.768;2023-05-19T00:28:05;93341.00;;;8.93;100.00
64402;BME280;50724;42.376;23.768;2023-05-19T00:31:06;93332.56;;;8.99;100.00
64402;BME280;50724;42.376;23.768;2023-05-19T00:34:06;93332.91;;;9.04;100.00
64402;BME280;50724;42.376;23.768;2023-05-19T00:37:06;93328.97;;;9.00;100.00
64402;BME280;50724;42.376;23.768;2023-05-19T00:40:08;93326.78;;;9.13;100.00
64402;BME280;50724;42.376;23.768;2023-05-19T00:43:08;93323.63;;;9.27;100.00
64402;BME280;50724;42.376;23.768;2023-05-19T00:46:09;93317.88;;;9.24;100.00
64402;BME280;50724;42.376;23.768;2023-05-19T00:49:10;93319.03;;;9.21;100.00
64402;BME280;50724;42.376;23.768;2023-05-19T00:52:10;93317.38;;;9.20;100.00
64402;BME280;50724;42.376;23.768;2023-05-19T00:55:11;93312.66;;;9.24;100.00
64402;BME280;50724;42.376;23.768;2023-05-19T00:58:13;93307.31;;;9.25;100.00
64402;BME280;50724;42.376;23.768;2023-05-19T01:01:14;93319.38;;;9.26;100.00
64402;BME280;50724;42.376;23.768;2023-05-19T01:04:18;93317.88;;;9.24;100.00
64402;BME280;50724;42.376;23.768;2023-05-19T01:07:19;93323.94;;;9.24;100.00
64402;BME280;50724;42.376;23.768;2023-05-19T01:10:20;93322.66;;;9.28;100.00
64402;BME280;50724;42.376;23.768;2023-05-19T01:13:20;93321.19;;;9.26;100.00
64402;BME280;50724;42.376;23.768;2023-05-19T01:16:36;93328.31;;;9.24;100.00
64402;BME280;50724;42.376;23.768;2023-05-19T01:23:39;93324.38;;;9.20;100.00
64402;BME280;50724;42.376;23.768;2023-05-19T01:33:23;93315.03;;;9.09;100.00
64402;BME280;50724;42.376;23.768;2023-05-19T01:36:25;93308.31;;;9.07;100.00
64402;BME280;50724;42.376;23.768;2023-05-19T01:39:26;93319.63;;;9.15;100.00
64402;BME280;50724;42.376;23.768;2023-05-19T01:42:27;93309.56;;;9.20;100.00
64402;BME280;50724;42.376;23.768;2023-05-19T01:45:31;93305.81;;;9.23;100.00
64402;BME280;50724;42.376;23.768;2023-05-19T01:48:32;93310.22;;;9.22;100.00
64402;BME280;50724;42.376;23.768;2023-05-19T01:51:33;93303.47;;;9.37;100.00
64402;BME280;50724;42.376;23.768;2023-05-19T01:54:33;93308.78;;;9.28;100.00
64402;BME280;50724;42.376;23.768;2023-05-19T02:07:25;93314.22;;;9.34;100.00
64402;BME280;50724;42.376;23.768;2023-05-19T02:10:32;93316.81;;;9.34;100.00
64402;BME280;50724;42.376;23.768;2023-05-19T02:13:36;93317.00;;;9.33;100.00
64402;BME280;50724;42.376;23.768;2023-05-19T02:16:44;93325.28;;;9.28;100.00
64402;BME280;50724;42.376;23.768;2023-05-19T02:19:46;93331.16;;;9.30;100.00
64402;BME280;50724;42.376;23.768;2023-05-19T02:22:47;93321.53;;;9.31;100.00
64402;BME280;50724;42.376;23.768;2023-05-19T02:25:48;93332.22;;;9.45;100.00
64402;BME280;50724;42.376;23.768;2023-05-19T02:28:48;93330.50;;;9.28;100.00
64402;BME280;50724;42.376;23.768;2023-05-19T02:31:48;93328.31;;;9.24;100.00
64402;BME280;50724;42.376;23.768;2023-05-19T02:34:49;93324.84;;;9.15;100.00
64402;BME280;50724;42.376;23.768;2023-05-19T02:37:49;93325.00;;;9.14;100.00
64402;BME280;50724;42.376;23.768;2023-05-19T02:40:51;93336.56;;;9.11;100.00
64402;BME280;50724;42.376;23.768;2023-05-19T02:43:52;93338.19;;;9.12;100.00
64402;BME280;50724;42.376;23.768;2023-05-19T02:46:52;93337.59;;;9.00;100.00
64402;BME280;50724;42.376;23.768;2023-05-19T02:49:52;93344.97;;;9.05;100.00
64402;BME280;50724;42.376;23.768;2023-05-19T02:53:03;93334.31;;;9.16;100.00
64402;BME280;50724;42.376;23.768;2023-05-19T02:56:03;93333.88;;;9.03;100.00
64402;BME280;50724;42.376;23.768;2023-05-19T02:59:03;93343.53;;;9.03;100.00
64402;BME280;50724;42.376;23.768;2023-05-19T03:02:05;93345.13;;;9.04;100.00
64402;BME280;50724;42.376;23.768;2023-05-19T03:05:06;93344.56;;;8.92;100.00
64402;BME280;50724;42.376;23.768;2023-05-19T03:08:07;93342.16;;;8.98;100.00
64402;BME280;50724;42.376;23.768;2023-05-19T03:11:08;93350.44;;;8.94;100.00
64402;BME280;50724;42.376;23.768;2023-05-19T03:14:08;93347.03;;;8.76;100.00
64402;BME280;50724;42.376;23.768;2023-05-19T03:17:09;93348.66;;;8.77;100.00
64402;BME280;50724;42.376;23.768;2023-05-19T03:20:09;93346.56;;;8.80;100.00
64402;BME280;50724;42.376;23.768;2023-05-19T03:23:10;93344.63;;;9.00;100.00
64402;BME280;50724;42.376;23.768;2023-05-19T03:26:11;93347.66;;;9.13;100.00
64402;BME280;50724;42.376;23.768;2023-05-19T03:29:11;93357.41;;;9.29;100.00
64402;BME280;50724;42.376;23.768;2023-05-19T03:32:11;93346.09;;;9.46;100.00
64402;BME280;50724;42.376;23.768;2023-05-19T03:35:12;93351.59;;;9.60;100.00
64402;BME280;50724;42.376;23.768;2023-05-19T03:38:12;93355.69;;;9.63;100.00
64402;BME280;50724;42.376;23.768;2023-05-19T03:41:13;93339.69;;;9.66;100.00
64402;BME280;50724;42.376;23.768;2023-05-19T03:44:13;93349.38;;;9.74;100.00
64402;BME280;50724;42.376;23.768;2023-05-19T03:47:14;93354.00;;;9.88;99.90
64402;BME280;50724;42.376;23.768;2023-05-19T03:50:15;93351.81;;;10.01;100.00
64402;BME280;50724;42.376;23.768;2023-05-19T03:53:15;93356.59;;;9.80;100.00
64402;BME280;50724;42.376;23.768;2023-05-19T03:56:16;93355.84;;;9.95;99.69
64402;BME280;50724;42.376;23.768;2023-05-19T03:59:17;93358.34;;;10.05;100.00
64402;BME280;50724;42.376;23.768;2023-05-19T04:02:17;93365.25;;;10.56;98.99
64402;BME280;50724;42.376;23.768;2023-05-19T04:05:18;93376.88;;;10.61;95.19
64402;BME280;50724;42.376;23.768;2023-05-19T04:08:18;93377.88;;;10.68;98.97
64402;BME280;50724;42.376;23.768;2023-05-19T04:11:19;93382.97;;;10.78;95.84
64402;BME280;50724;42.376;23.768;2023-05-19T04:14:20;93377.47;;;11.61;91.29
64402;BME280;50724;42.376;23.768;2023-05-19T04:17:20;93379.66;;;12.90;84.17
64402;BME280;50724;42.376;23.768;2023-05-19T04:20:25;93387.66;;;13.50;80.10
64402;BME280;50724;42.376;23.768;2023-05-19T04:23:25;93386.84;;;14.39;74.56
64402;BME280;50724;42.376;23.768;2023-05-19T04:26:26;93390.47;;;15.60;70.04
64402;BME280;50724;42.376;23.768;2023-05-19T04:29:30;93385.19;;;15.60;70.96
64402;BME280;50724;42.376;23.768;2023-05-19T04:32:31;93375.97;;;16.26;66.89
64402;BME280;50724;42.376;23.768;2023-05-19T04:35:32;93383.06;;;16.94;65.95
64402;BME280;50724;42.376;23.768;2023-05-19T04:38:33;93383.94;;;17.74;63.21
64402;BME280;50724;42.376;23.768;2023-05-19T04:41:33;93382.88;;;18.61;58.21
64402;BME280;50724;42.376;23.768;2023-05-19T04:44:34;93392.72;;;19.11;55.38
64402;BME280;50724;42.376;23.768;2023-05-19T04:47:35;93398.78;;;18.61;57.98
64402;BME280;50724;42.376;23.768;2023-05-19T04:50:38;93395.84;;;18.88;54.38
64402;BME280;50724;42.376;23.768;2023-05-19T04:53:41;93393.72;;;20.17;51.26
64402;BME280;50724;42.376;23.768;2023-05-19T04:56:41;93385.91;;;20.89;49.55
64402;BME280;50724;42.376;23.768;2023-05-19T04:59:42;93390.66;;;21.89;47.13
64402;BME280;50724;42.376;23.768;2023-05-19T05:02:43;93404.28;;;23.50;44.05
64402;BME280;50724;42.376;23.768;2023-05-19T05:05:43;93404.16;;;23.45;42.49
64402;BME280;50724;42.376;23.768;2023-05-19T05:08:44;93397.34;;;21.62;45.52
64402;BME280;50724;42.376;23.768;2023-05-19T05:11:44;93399.59;;;22.07;44.91
64402;BME280;50724;42.376;23.768;2023-05-19T05:14:45;93401.44;;;22.59;44.40
64402;BME280;50724;42.376;23.768;2023-05-19T05:17:46;93407.03;;;20.84;49.26
64402;BME280;50724;42.376;23.768;2023-05-19T05:20:47;93398.97;;;19.23;51.80
64402;BME280;50724;42.376;23.768;2023-05-19T05:23:48;93394.38;;;17.22;58.17
64402;BME280;50724;42.376;23.768;2023-05-19T05:26:49;93390.97;;;15.91;64.98
64402;BME280;50724;42.376;23.768;2023-05-19T05:29:50;93396.25;;;15.70;64.55
64402;BME280;50724;42.376;23.768;2023-05-19T05:32:50;93407.13;;;15.60;65.95
64402;BME280;50724;42.376;23.768;2023-05-19T05:35:50;93406.22;;;14.82;69.52
64402;BME280;50724;42.376;23.768;2023-05-19T05:38:51;93398.16;;;14.83;69.47
64402;BME280;50724;42.376;23.768;2023-05-19T05:41:51;93408.41;;;14.78;73.02
64402;BME280;50724;42.376;23.768;2023-05-19T05:45:00;93413.53;;;15.51;71.48
64402;BME280;50724;42.376;23.768;2023-05-19T05:48:01;93413.50;;;15.15;68.65
64402;BME280;50724;42.376;23.768;2023-05-19T05:51:02;93430.47;;;14.77;69.85
64402;BME280;50724;42.376;23.768;2023-05-19T05:54:05;93419.22;;;14.69;70.59
64402;BME280;50724;42.376;23.768;2023-05-19T05:57:06;93423.78;;;14.08;73.19
64402;BME280;50724;42.376;23.768;2023-05-19T06:00:07;93430.41;;;14.04;73.56
64402;BME280;50724;42.376;23.768;2023-05-19T06:03:14;93420.66;;;14.57;73.44
64402;BME280;50724;42.376;23.768;2023-05-19T06:06:16;93418.56;;;14.23;74.89
64402;BME280;50724;42.376;23.768;2023-05-19T06:09:16;93422.84;;;14.38;75.88
64402;BME280;50724;42.376;23.768;2023-05-19T06:12:17;93429.66;;;13.96;75.88
64402;BME280;50724;42.376;23.768;2023-05-19T06:15:17;93430.66;;;14.46;74.33
64402;BME280;50724;42.376;23.768;2023-05-19T06:18:17;93443.19;;;14.30;75.97
64402;BME280;50724;42.376;23.768;2023-05-19T06:21:18;93438.72;;;14.45;73.71
64402;BME280;50724;42.376;23.768;2023-05-19T06:24:19;93436.84;;;14.39;75.07
64402;BME280;50724;42.376;23.768;2023-05-19T06:27:19;93442.88;;;14.25;75.50
64402;BME280;50724;42.376;23.768;2023-05-19T06:30:20;93439.84;;;14.65;75.26
64402;BME280;50724;42.376;23.768;2023-05-19T06:33:20;93449.25;;;14.30;78.46
64402;BME280;50724;42.376;23.768;2023-05-19T06:36:24;93451.56;;;14.25;76.69
64402;BME280;50724;42.376;23.768;2023-05-19T06:39:24;93459.78;;;14.08;75.61
64402;BME280;50724;42.376;23.768;2023-05-19T06:42:25;93452.50;;;13.95;75.52
64402;BME280;50724;42.376;23.768;2023-05-19T06:45:26;93449.13;;;13.87;77.11
64402;BME280;50724;42.376;23.768;2023-05-19T06:48:26;93452.91;;;14.21;77.37
64402;BME280;50724;42.376;23.768;2023-05-19T06:51:26;93451.63;;;14.69;75.51
64402;BME280;50724;42.376;23.768;2023-05-19T06:54:27;93450.53;;;14.93;76.03
64402;BME280;50724;42.376;23.768;2023-05-19T06:57:27;93447.72;;;14.80;78.18
64402;BME280;50724;42.376;23.768;2023-05-19T07:00:28;93459.16;;;14.87;73.79
64402;BME280;50724;42.376;23.768;2023-05-19T07:03:29;93453.34;;;14.91;76.54
64402;BME280;50724;42.376;23.768;2023-05-19T07:06:30;93449.97;;;14.54;74.32
64402;BME280;50724;42.376;23.768;2023-05-19T07:09:30;93451.31;;;14.93;73.97
64402;BME280;50724;42.376;23.768;2023-05-19T07:12:31;93450.53;;;14.49;75.98
64402;BME280;50724;42.376;23.768;2023-05-19T07:15:31;93450.97;;;14.38;75.11
64402;BME280;50724;42.376;23.768;2023-05-19T07:18:32;93451.72;;;14.76;76.65
64402;BME280;50724;42.376;23.768;2023-05-19T07:21:33;93455.19;;;15.27;75.57
64402;BME280;50724;42.376;23.768;2023-05-19T07:24:33;93452.16;;;15.59;72.46
64402;BME280;50724;42.376;23.768;2023-05-19T07:27:34;93455.22;;;15.83;71.46
64402;BME280;50724;42.376;23.768;2023-05-19T07:30:35;93451.06;;;15.74;70.18
64402;BME280;50724;42.376;23.768;2023-05-19T07:33:35;93458.81;;;16.04;70.95
64402;BME280;50724;42.376;23.768;2023-05-19T07:36:35;93458.94;;;15.89;69.54
64402;BME280;50724;42.376;23.768;2023-05-19T07:39:36;93455.97;;;15.77;70.24
64402;BME280;50724;42.376;23.768;2023-05-19T07:42:37;93445.75;;;16.17;70.82
64402;BME280;50724;42.376;23.768;2023-05-19T07:45:37;93446.16;;;15.93;72.33
64402;BME280;50724;42.376;23.768;2023-05-19T07:48:38;93448.44;;;16.23;70.15
64402;BME280;50724;42.376;23.768;2023-05-19T07:55:59;93436.69;;;16.26;69.12
64402;BME280;50724;42.376;23.768;2023-05-19T07:59:00;93445.38;;;16.20;66.11
64402;BME280;50724;42.376;23.768;2023-05-19T08:02:00;93444.47;;;16.55;63.97
64402;BME280;50724;42.376;23.768;2023-05-19T08:05:01;93445.72;;;16.66;63.77
64402;BME280;50724;42.376;23.768;2023-05-19T08:08:02;93439.16;;;16.89;66.96
64402;BME280;50724;42.376;23.768;2023-05-19T08:11:03;93451.00;;;16.38;62.28
64402;BME280;50724;42.376;23.768;2023-05-19T08:14:04;93452.03;;;17.05;63.80
64402;BME280;50724;42.376;23.768;2023-05-19T08:17:04;93448.16;;;17.49;64.14
64402;BME280;50724;42.376;23.768;2023-05-19T08:20:05;93457.97;;;17.55;63.74
64402;BME280;50724;42.376;23.768;2023-05-19T08:23:08;93455.22;;;18.22;60.26
64402;BME280;50724;42.376;23.768;2023-05-19T08:26:08;93452.78;;;18.07;60.64
64402;BME280;50724;42.376;23.768;2023-05-19T08:29:08;93447.88;;;18.04;61.59
64402;BME280;50724;42.376;23.768;2023-05-19T08:32:09;93450.09;;;17.74;64.20
64402;BME280;50724;42.376;23.768;2023-05-19T08:35:09;93446.25;;;17.97;63.15
64402;BME280;50724;42.376;23.768;2023-05-19T08:38:10;93460.06;;;18.90;59.35
64402;BME280;50724;42.376;23.768;2023-05-19T08:41:11;93446.72;;;19.36;60.18
64402;BME280;50724;42.376;23.768;2023-05-19T08:44:11;93447.66;;;18.84;58.82
64402;BME280;50724;42.376;23.768;2023-05-19T08:47:12;93441.56;;;18.25;60.78
64402;BME280;50724;42.376;23.768;2023-05-19T08:50:18;93449.31;;;18.72;58.63
64402;BME280;50724;42.376;23.768;2023-05-19T08:53:22;93451.75;;;18.67;55.39
64402;BME280;50724;42.376;23.768;2023-05-19T08:56:25;93458.09;;;18.40;60.39
64402;BME280;50724;42.376;23.768;2023-05-19T08:59:26;93453.78;;;18.78;60.55
64402;BME280;50724;42.376;23.768;2023-05-19T09:02:27;93449.69;;;18.76;59.82
64402;BME280;50724;42.376;23.768;2023-05-19T09:05:28;93449.34;;;18.46;62.72
64402;BME280;50724;42.376;23.768;2023-05-19T09:08:28;93455.03;;;18.23;60.88
64402;BME280;50724;42.376;23.768;2023-05-19T09:11:29;93452.34;;;18.43;57.91
64402;BME280;50724;42.376;23.768;2023-05-19T09:14:29;93451.16;;;18.32;59.58
64402;BME280;50724;42.376;23.768;2023-05-19T09:17:30;93448.66;;;17.78;60.34
64402;BME280;50724;42.376;23.768;2023-05-19T09:20:31;93443.09;;;17.54;57.58
64402;BME280;50724;42.376;23.768;2023-05-19T09:23:31;93446.66;;;18.07;59.87
64402;BME280;50724;42.376;23.768;2023-05-19T09:26:36;93445.44;;;18.16;62.04
64402;BME280;50724;42.376;23.768;2023-05-19T09:29:38;93444.03;;;18.39;60.79
64402;BME280;50724;42.376;23.768;2023-05-19T09:32:38;93441.13;;;19.57;55.11
64402;BME280;50724;42.376;23.768;2023-05-19T09:35:39;93429.47;;;20.21;57.16
64402;BME280;50724;42.376;23.768;2023-05-19T09:38:39;93428.53;;;20.65;54.09
64402;BME280;50724;42.376;23.768;2023-05-19T09:41:40;93437.09;;;20.11;52.54
64402;BME280;50724;42.376;23.768;2023-05-19T09:44:41;93435.25;;;19.80;54.19
64402;BME280;50724;42.376;23.768;2023-05-19T09:47:42;93426.81;;;20.27;49.28
64402;BME280;50724;42.376;23.768;2023-05-19T09:50:42;93428.84;;;20.19;50.17
64402;BME280;50724;42.376;23.768;2023-05-19T09:53:45;93434.72;;;19.71;54.74
64402;BME280;50724;42.376;23.768;2023-05-19T09:56:50;93438.41;;;19.06;55.24
64402;BME280;50724;42.376;23.768;2023-05-19T09:59:51;93440.88;;;19.01;56.20
64402;BME280;50724;42.376;23.768;2023-05-19T10:02:52;93436.28;;;18.44;60.97
64402;BME280;50724;42.376;23.768;2023-05-19T10:05:56;93441.31;;;18.98;54.22
64402;BME280;50724;42.376;23.768;2023-05-19T10:08:57;93437.50;;;19.32;56.32
64402;BME280;50724;42.376;23.768;2023-05-19T10:11:59;93433.75;;;19.59;53.32
64402;BME280;50724;42.376;23.768;2023-05-19T10:14:59;93439.19;;;19.71;52.41
64402;BME280;50724;42.376;23.768;2023-05-19T10:18:02;93443.03;;;19.75;48.75
64402;BME280;50724;42.376;23.768;2023-05-19T10:21:03;93434.09;;;20.01;49.45
64402;BME280;50724;42.376;23.768;2023-05-19T10:24:04;93432.09;;;20.95;51.09
64402;BME280;50724;42.376;23.768;2023-05-19T10:27:09;93438.16;;;19.78;46.42
64402;BME280;50724;42.376;23.768;2023-05-19T10:30:13;93437.09;;;19.35;46.30
64402;BME280;50724;42.376;23.768;2023-05-19T10:33:16;93435.28;;;20.05;48.15
64402;BME280;50724;42.376;23.768;2023-05-19T10:39:33;93441.22;;;19.25;53.03
64402;BME280;50724;42.376;23.768;2023-05-19T10:42:56;93443.28;;;19.16;53.96
64402;BME280;50724;42.376;23.768;2023-05-19T10:46:03;93442.56;;;18.76;54.22
64402;BME280;50724;42.376;23.768;2023-05-19T10:49:06;93455.28;;;19.25;54.64
64402;BME280;50724;42.376;23.768;2023-05-19T10:52:22;93450.28;;;18.91;56.26
64402;BME280;50724;42.376;23.768;2023-05-19T10:55:52;93464.59;;;18.31;58.61
64402;BME280;50724;42.376;23.768;2023-05-19T10:58:52;93472.03;;;17.68;61.10
64402;BME280;50724;42.376;23.768;2023-05-19T11:01:53;93468.94;;;17.52;61.39
64402;BME280;50724;42.376;23.768;2023-05-19T11:04:53;93472.41;;;17.59;60.16
64402;BME280;50724;42.376;23.768;2023-05-19T11:07:58;93469.22;;;17.70;57.02
64402;BME280;50724;42.376;23.768;2023-05-19T11:11:14;93463.50;;;17.73;55.73
64402;BME280;50724;42.376;23.768;2023-05-19T11:14:22;93452.78;;;16.93;59.74
64402;BME280;50724;42.376;23.768;2023-05-19T11:17:25;93450.25;;;17.19;61.00
64402;BME280;50724;42.376;23.768;2023-05-19T11:20:28;93456.34;;;16.79;63.95
64402;BME280;50724;42.376;23.768;2023-05-19T11:23:36;93464.59;;;16.63;65.25
64402;BME280;50724;42.376;23.768;2023-05-19T11:26:41;93452.38;;;16.55;63.38
64402;BME280;50724;42.376;23.768;2023-05-19T11:29:46;93464.66;;;17.10;61.95
64402;BME280;50724;42.376;23.768;2023-05-19T11:32:47;93459.50;;;17.36;59.26
64402;BME280;50724;42.376;23.768;2023-05-19T11:35:49;93469.88;;;18.18;63.53
64402;BME280;50724;42.376;23.768;2023-05-19T11:38:50;93472.34;;;18.39;60.34
64402;BME280;50724;42.376;23.768;2023-05-19T11:41:51;93470.88;;;18.95;57.25
64402;BME280;50724;42.376;23.768;2023-05-19T11:44:54;93475.09;;;19.29;57.75
64402;BME280;50724;42.376;23.768;2023-05-19T11:47:56;93470.28;;;18.15;57.49
64402;BME280;50724;42.376;23.768;2023-05-19T11:50:58;93472.53;;;18.44;57.49
64402;BME280;50724;42.376;23.768;2023-05-19T11:53:59;93478.00;;;19.08;53.81
64402;BME280;50724;42.376;23.768;2023-05-19T11:57:01;93478.84;;;18.95;54.10
64402;BME280;50724;42.376;23.768;2023-05-19T12:00:02;93478.47;;;18.46;50.79
64402;BME280;50724;42.376;23.768;2023-05-19T12:03:08;93478.03;;;18.82;51.81
64402;BME280;50724;42.376;23.768;2023-05-19T12:06:09;93478.97;;;19.13;51.52
64402;BME280;50724;42.376;23.768;2023-05-19T12:09:09;93476.00;;;18.64;54.31
64402;BME280;50724;42.376;23.768;2023-05-19T12:12:13;93469.78;;;19.22;52.17
64402;BME280;50724;42.376;23.768;2023-05-19T12:15:14;93460.09;;;18.84;50.29
64402;BME280;50724;42.376;23.768;2023-05-19T12:18:18;93457.44;;;17.92;54.28
64402;BME280;50724;42.376;23.768;2023-05-19T12:21:18;93452.53;;;17.82;52.83
64402;BME280;50724;42.376;23.768;2023-05-19T12:24:19;93448.88;;;17.97;53.53
64402;BME280;50724;42.376;23.768;2023-05-19T12:27:24;93446.25;;;17.97;50.73
64402;BME280;50724;42.376;23.768;2023-05-19T12:30:29;93443.59;;;17.90;51.97
64402;BME280;50724;42.376;23.768;2023-05-19T12:33:31;93438.72;;;18.26;52.57
64402;BME280;50724;42.376;23.768;2023-05-19T12:36:32;93435.47;;;18.70;50.31
64402;BME280;50724;42.376;23.768;2023-05-19T12:39:32;93438.69;;;18.85;49.29
64402;BME280;50724;42.376;23.768;2023-05-19T12:42:33;93432.56;;;18.78;48.21
64402;BME280;50724;42.376;23.768;2023-05-19T12:45:34;93438.72;;;19.30;46.18
64402;BME280;50724;42.376;23.768;2023-05-19T12:48:42;93438.75;;;19.80;44.92
64402;BME280;50724;42.376;23.768;2023-05-19T12:51:51;93438.22;;;19.97;43.20
64402;BME280;50724;42.376;23.768;2023-05-19T12:55:04;93432.75;;;19.92;43.38
64402;BME280;50724;42.376;23.768;2023-05-19T12:58:06;93423.91;;;19.66;43.98
64402;BME280;50724;42.376;23.768;2023-05-19T13:01:13;93422.91;;;19.61;46.72
64402;BME280;50724;42.376;23.768;2023-05-19T13:04:14;93416.44;;;19.88;47.22
64402;BME280;50724;42.376;23.768;2023-05-19T13:07:14;93407.06;;;21.02;43.18
64402;BME280;50724;42.376;23.768;2023-05-19T13:10:15;93406.09;;;20.97;45.94
64402;BME280;50724;42.376;23.768;2023-05-19T13:13:16;93392.94;;;20.84;45.05
64402;BME280;50724;42.376;23.768;2023-05-19T13:16:16;93392.31;;;20.64;48.26
64402;BME280;50724;42.376;23.768;2023-05-19T13:19:18;93400.63;;;20.92;46.16
64402;BME280;50724;42.376;23.768;2023-05-19T13:22:18;93396.97;;;20.68;48.21
64402;BME280;50724;42.376;23.768;2023-05-19T13:25:21;93386.47;;;20.98;47.40
64402;BME280;50724;42.376;23.768;2023-05-19T13:28:22;93379.25;;;21.05;46.31
64402;BME280;50724;42.376;23.768;2023-05-19T13:31:31;93386.59;;;21.87;44.52
64402;BME280;50724;42.376;23.768;2023-05-19T13:34:31;93383.38;;;21.78;43.89
64402;BME280;50724;42.376;23.768;2023-05-19T13:37:32;93385.25;;;22.08;42.04
64402;BME280;50724;42.376;23.768;2023-05-19T13:40:32;93374.72;;;22.13;43.13
64402;BME280;50724;42.376;23.768;2023-05-19T13:43:33;93374.69;;;21.89;42.33
64402;BME280;50724;42.376;23.768;2023-05-19T13:46:43;93372.97;;;22.07;42.24
64402;BME280;50724;42.376;23.768;2023-05-19T13:49:43;93377.06;;;21.32;42.18
64402;BME280;50724;42.376;23.768;2023-05-19T13:52:43;93372.34;;;20.97;40.65
64402;BME280;50724;42.376;23.768;2023-05-19T13:55:44;93372.25;;;21.40;41.00
64402;BME280;50724;42.376;23.768;2023-05-19T13:58:44;93375.19;;;21.50;40.62
64402;BME280;50724;42.376;23.768;2023-05-19T14:01:45;93375.88;;;21.75;43.66
64402;BME280;50724;42.376;23.768;2023-05-19T14:04:46;93381.78;;;22.19;40.61
64402;BME280;50724;42.376;23.768;2023-05-19T14:07:46;93380.44;;;22.74;39.34
64402;BME280;50724;42.376;23.768;2023-05-19T14:10:49;93388.34;;;21.45;40.75
64402;BME280;50724;42.376;23.768;2023-05-19T14:13:49;93369.19;;;20.21;43.05
64402;BME280;50724;42.376;23.768;2023-05-19T14:16:50;93370.06;;;20.40;44.95
64402;BME280;50724;42.376;23.768;2023-05-19T14:19:50;93367.06;;;20.73;44.75
64402;BME280;50724;42.376;23.768;2023-05-19T14:22:51;93371.00;;;20.88;45.41
64402;BME280;50724;42.376;23.768;2023-05-19T14:25:51;93381.41;;;20.04;45.39
64402;BME280;50724;42.376;23.768;2023-05-19T14:28:52;93387.91;;;19.77;48.24
64402;BME280;50724;42.376;23.768;2023-05-19T14:31:52;93380.84;;;19.64;47.02
64402;BME280;50724;42.376;23.768;2023-05-19T14:34:52;93384.66;;;19.75;45.45
64402;BME280;50724;42.376;23.768;2023-05-19T14:37:53;93385.97;;;19.15;46.04
64402;BME280;50724;42.376;23.768;2023-05-19T14:40:53;93393.97;;;19.84;47.18
64402;BME280;50724;42.376;23.768;2023-05-19T14:43:54;93388.91;;;20.07;44.34
64402;BME280;50724;42.376;23.768;2023-05-19T14:46:54;93389.56;;;21.13;42.40
64402;BME280;50724;42.376;23.768;2023-05-19T14:49:54;93388.53;;;22.44;38.70
64402;BME280;50724;42.376;23.768;2023-05-19T14:52:55;93398.44;;;22.79;36.32
64402;BME280;50724;42.376;23.768;2023-05-19T14:55:56;93392.56;;;23.96;35.71
64402;BME280;50724;42.376;23.768;2023-05-19T14:58:56;93393.59;;;24.85;33.58
64402;BME280;50724;42.376;23.768;2023-05-19T15:01:57;93395.84;;;24.43;34.55
64402;BME280;50724;42.376;23.768;2023-05-19T15:04:58;93398.16;;;24.23;33.96
64402;BME280;50724;42.376;23.768;2023-05-19T15:07:59;93405.31;;;23.49;34.79
64402;BME280;50724;42.376;23.768;2023-05-19T15:11:00;93405.91;;;23.28;36.76
64402;BME280;50724;42.376;23.768;2023-05-19T15:14:00;93403.25;;;23.79;36.34
64402;BME280;50724;42.376;23.768;2023-05-19T15:17:01;93400.53;;;24.69;32.21
64402;BME280;50724;42.376;23.768;2023-05-19T15:20:04;93400.59;;;24.57;34.32
64402;BME280;50724;42.376;23.768;2023-05-19T15:23:05;93404.34;;;24.23;33.25
64402;BME280;50724;42.376;23.768;2023-05-19T15:26:05;93399.72;;;22.76;37.19
64402;BME280;50724;42.376;23.768;2023-05-19T15:29:06;93397.97;;;22.93;36.38
64402;BME280;50724;42.376;23.768;2023-05-19T15:32:07;93391.19;;;25.05;33.87
64402;BME280;50724;42.376;23.768;2023-05-19T15:35:07;93388.56;;;25.70;31.43
64402;BME280;50724;42.376;23.768;2023-05-19T15:38:08;93396.84;;;26.12;30.18
64402;BME280;50724;42.376;23.768;2023-05-19T15:41:09;93399.78;;;28.29;27.94
64402;BME280;50724;42.376;23.768;2023-05-19T15:44:09;93407.97;;;27.77;27.18
64402;BME280;50724;42.376;23.768;2023-05-19T15:47:10;93403.16;;;26.91;29.50
64402;BME280;50724;42.376;23.768;2023-05-19T15:50:10;93400.06;;;25.27;31.42
64402;BME280;50724;42.376;23.768;2023-05-19T15:53:11;93410.72;;;23.66;34.37
64402;BME280;50724;42.376;23.768;2023-05-19T15:56:11;93407.50;;;24.53;33.70
64402;BME280;50724;42.376;23.768;2023-05-19T15:59:15;93411.59;;;24.89;32.71
64402;BME280;50724;42.376;23.768;2023-05-19T16:02:15;93408.13;;;24.27;33.38
64402;BME280;50724;42.376;23.768;2023-05-19T16:05:15;93402.03;;;22.73;36.19
64402;BME280;50724;42.376;23.768;2023-05-19T16:08:16;93407.09;;;21.20;39.42
64402;BME280;50724;42.376;23.768;2023-05-19T16:11:16;93402.13;;;21.42;40.60
64402;BME280;50724;42.376;23.768;2023-05-19T16:14:17;93403.44;;;22.11;38.86
64402;BME280;50724;42.376;23.768;2023-05-19T16:17:17;93398.38;;;22.44;37.54